createdAt,value
2018-05-11T00:00:26.934Z,22.73
2018-05-11T00:02:54.495Z,23.53
2018-05-11T00:05:22.047Z,24.27
2018-05-11T00:07:50.392Z,23.47
2018-05-11T00:10:17.943Z,23.07
2018-05-11T00:12:45.567Z,23.23
2018-05-11T00:15:13.908Z,23.70
2018-05-11T00:17:41.558Z,22.97
2018-05-11T00:20:09.880Z,23.07
2018-05-11T00:22:37.431Z,23.40
2018-05-11T00:25:04.987Z,23.83
2018-05-11T00:27:32.634Z,24.27
2018-05-11T00:30:00.948Z,24.80
2018-05-11T00:32:28.521Z,23.23
2018-05-11T00:34:56.835Z,25.60
2018-05-11T00:37:24.386Z,23.47
2018-05-11T00:39:53.453Z,23.40
2018-05-11T00:42:20.994Z,24.87
2018-05-11T00:44:48.621Z,23.07
2018-05-11T00:47:16.971Z,24.13
2018-05-11T00:49:44.523Z,25.50
2018-05-11T00:52:12.080Z,26.53
2018-05-11T00:54:39.735Z,25.50
2018-05-11T00:57:07.318Z,26.23
2018-05-11T00:59:34.874Z,26.43
2018-05-11T01:02:02.431Z,25.97
2018-05-11T01:04:30.153Z,25.97
2018-05-11T01:06:58.660Z,26.20
2018-05-11T01:09:26.971Z,25.87
2018-05-11T01:11:54.652Z,26.43
2018-05-11T01:14:23.294Z,27.57
2018-05-11T01:16:50.915Z,26.20
2018-05-11T01:19:18.467Z,25.67
2018-05-11T01:21:46.007Z,25.23
2018-05-11T01:24:13.661Z,25.13
2018-05-11T01:26:41.242Z,24.87
2018-05-11T01:29:08.832Z,24.90
2018-05-11T01:31:36.422Z,24.97
2018-05-11T01:34:03.976Z,25.10
2018-05-11T01:36:31.655Z,26.27
2018-05-11T01:38:59.283Z,23.87
2018-05-11T01:41:26.863Z,24.40
2018-05-11T01:43:54.422Z,24.60
2018-05-11T01:46:22.063Z,24.27
2018-05-11T01:48:49.878Z,23.60
2018-05-11T01:51:17.522Z,23.40
2018-05-11T01:53:45.194Z,23.60
2018-05-11T01:56:13.527Z,22.80
2018-05-11T01:58:41.355Z,22.10
2018-05-11T02:01:09.183Z,24.73
2018-05-11T02:03:36.751Z,22.23
2018-05-11T02:06:05.201Z,23.83
2018-05-11T02:08:32.820Z,23.53
2018-05-11T02:11:00.548Z,23.17
2018-05-11T02:13:28.237Z,22.17
2018-05-11T02:15:55.874Z,23.03
2018-05-11T02:18:23.626Z,22.90
2018-05-11T02:20:51.941Z,22.70
2018-05-11T02:23:19.521Z,24.17
2018-05-11T02:25:47.255Z,23.50
2018-05-11T02:28:14.829Z,22.47
2018-05-11T02:30:42.398Z,23.53
2018-05-11T02:33:10.927Z,23.80
2018-05-11T02:35:38.811Z,23.03
2018-05-11T02:38:07.290Z,23.00
2018-05-11T02:40:34.831Z,22.60
2018-05-11T02:43:02.415Z,24.07
2018-05-11T02:45:30.040Z,24.17
2018-05-11T02:47:57.591Z,24.50
2018-05-11T02:50:26.024Z,23.33
2018-05-11T02:52:54.641Z,25.00
2018-05-11T02:55:22.246Z,22.80
2018-05-11T02:57:49.892Z,24.30
2018-05-11T03:00:18.298Z,24.60
2018-05-11T03:02:45.916Z,25.10
2018-05-11T03:05:13.595Z,23.67
2018-05-11T03:07:41.370Z,24.47
2018-05-11T03:10:08.993Z,24.20
2018-05-11T03:12:36.747Z,25.13
2018-05-11T03:15:04.339Z,25.17
2018-05-11T03:17:31.955Z,23.53
2018-05-11T03:19:59.562Z,25.90
2018-05-11T03:22:27.216Z,23.67
2018-05-11T03:24:55.519Z,23.97
2018-05-11T03:27:23.173Z,23.90
2018-05-11T03:29:51.811Z,25.30
2018-05-11T03:32:20.522Z,24.37
2018-05-11T03:34:48.935Z,26.33
2018-05-11T03:37:16.763Z,25.93
2018-05-11T03:39:44.714Z,25.07
2018-05-11T03:42:12.425Z,26.07
2018-05-11T03:44:40.002Z,25.27
2018-05-11T03:47:09.365Z,26.43
2018-05-11T03:49:36.996Z,26.23
2018-05-11T03:52:04.558Z,26.40
2018-05-11T03:54:33.099Z,25.90
2018-05-11T03:57:01.496Z,24.73
2018-05-11T03:59:29.296Z,26.57
2018-05-11T04:02:10.261Z,26.30
2018-05-11T04:04:49.898Z,25.83
2018-05-11T04:07:30.512Z,26.03
2018-05-11T04:09:58.427Z,26.37
2018-05-11T04:12:26.116Z,25.53
2018-05-11T04:14:55.748Z,26.97
2018-05-11T04:17:24.977Z,25.73
2018-05-11T04:19:53.384Z,27.23
2018-05-11T04:22:21.672Z,26.07
2018-05-11T04:24:49.846Z,26.10
2018-05-11T04:27:18.444Z,25.90
2018-05-11T04:29:46.858Z,26.27
2018-05-11T04:32:14.521Z,26.73
2018-05-11T04:34:43.425Z,26.03
2018-05-11T04:37:11.065Z,26.37
2018-05-11T04:39:39.482Z,24.93
2018-05-11T04:42:07.147Z,24.57
2018-05-11T04:44:35.611Z,25.90
2018-05-11T04:47:03.306Z,25.03
2018-05-11T04:49:30.964Z,26.57
2018-05-11T04:51:58.878Z,26.00
2018-05-11T04:54:26.756Z,26.17
2018-05-11T04:56:55.117Z,25.33
2018-05-11T04:59:22.999Z,26.40
2018-05-11T05:01:51.912Z,25.80
2018-05-11T05:04:20.480Z,24.50
2018-05-11T05:06:48.133Z,24.43
2018-05-11T05:09:16.537Z,26.33
2018-05-11T05:11:45.448Z,25.03
2018-05-11T05:14:16.561Z,25.93
2018-05-11T05:16:44.531Z,25.53
2018-05-11T05:19:14.964Z,25.73
2018-05-11T05:21:50.704Z,25.77
2018-05-11T05:24:24.148Z,24.83
2018-05-11T05:26:55.880Z,27.00
2018-05-11T05:29:27.971Z,24.93
2018-05-11T05:31:56.553Z,27.27
2018-05-11T05:34:26.910Z,26.43
2018-05-11T05:36:56.010Z,26.27
2018-05-11T05:39:33.764Z,27.07
2018-05-11T05:42:03.354Z,26.20
2018-05-11T05:44:32.856Z,26.73
2018-05-11T05:47:04.196Z,26.33
2018-05-11T05:49:34.686Z,26.70
2018-05-11T05:52:07.205Z,25.00
2018-05-11T05:54:37.939Z,26.93
2018-05-11T05:57:12.946Z,27.80
2018-05-11T05:59:43.796Z,27.07
2018-05-11T06:02:14.639Z,26.50
2018-05-11T06:04:42.658Z,26.73
2018-05-11T06:07:10.298Z,28.40
2018-05-11T06:09:38.108Z,27.30
2018-05-11T06:12:05.778Z,28.10
2018-05-11T06:14:33.822Z,27.23
2018-05-11T06:17:01.740Z,27.53
2018-05-11T06:19:32.412Z,28.27
2018-05-11T06:22:00.073Z,26.90
2018-05-11T06:24:31.949Z,29.10
2018-05-11T06:27:00.967Z,27.63
2018-05-11T06:29:28.596Z,27.33
2018-05-11T06:34:40.267Z,27.67
2018-05-11T06:37:12.850Z,27.40
2018-05-11T06:39:41.865Z,28.17
2018-05-11T06:42:10.996Z,27.17
2018-05-11T06:44:39.123Z,27.43
2018-05-11T06:47:06.815Z,28.40
2018-05-11T06:49:34.475Z,26.77
2018-05-11T06:52:08.549Z,28.83
2018-05-11T06:54:37.972Z,27.73
2018-05-11T06:57:05.881Z,27.50
2018-05-11T06:59:33.639Z,28.03
2018-05-11T07:02:01.778Z,29.97
2018-05-11T07:04:29.597Z,28.00
2018-05-11T07:06:58.245Z,28.77
2018-05-11T07:09:28.138Z,29.40
2018-05-11T07:11:55.845Z,28.47
2018-05-11T07:14:23.476Z,29.00
2018-05-11T07:16:52.109Z,26.97
2018-05-11T07:19:20.163Z,28.07
2018-05-11T07:21:48.887Z,30.07
2018-05-11T07:24:16.472Z,28.03
2018-05-11T07:26:44.044Z,28.17
2018-05-11T07:29:11.624Z,28.63
2018-05-11T07:31:39.273Z,28.30
2018-05-11T07:34:06.946Z,27.23
2018-05-11T07:36:34.475Z,27.60
2018-05-11T07:39:02.032Z,30.40
2018-05-11T07:41:29.660Z,26.90
2018-05-11T07:43:57.971Z,27.77
2018-05-11T07:46:25.554Z,26.83
2018-05-11T07:48:53.871Z,27.67
2018-05-11T07:51:21.447Z,25.20
2018-05-11T07:53:48.991Z,27.47
2018-05-11T07:56:16.535Z,28.10
2018-05-11T07:58:44.095Z,27.17
2018-05-11T08:01:11.678Z,27.63
2018-05-11T08:03:39.522Z,25.80
2018-05-11T08:06:07.926Z,24.93
2018-05-11T08:08:36.242Z,26.13
2018-05-11T08:11:03.838Z,26.67
2018-05-11T08:13:31.430Z,25.63
2018-05-11T08:15:59.080Z,26.30
2018-05-11T08:18:26.622Z,27.40
2018-05-11T08:20:54.175Z,26.50
2018-05-11T08:23:21.740Z,26.30
2018-05-11T08:25:49.287Z,26.80
2018-05-11T08:28:16.836Z,26.33
2018-05-11T08:30:44.406Z,24.67
2018-05-11T08:33:12.731Z,26.00
2018-05-11T08:35:40.295Z,27.10
2018-05-11T08:38:08.608Z,27.27
2018-05-11T08:40:36.163Z,24.27
2018-05-11T08:43:03.711Z,26.17
2018-05-11T08:45:31.279Z,25.03
2018-05-11T08:47:58.899Z,26.03
2018-05-11T08:50:27.159Z,25.33
2018-05-11T08:52:54.707Z,25.77
2018-05-11T08:55:22.254Z,25.50
2018-05-11T08:57:49.863Z,26.07
2018-05-11T09:00:17.477Z,26.80
2018-05-11T09:02:45.027Z,25.77
2018-05-11T09:05:12.592Z,26.27
2018-05-11T09:07:40.166Z,24.70
2018-05-11T09:10:08.499Z,25.27
2018-05-11T09:12:36.064Z,25.97
2018-05-11T09:15:04.388Z,25.70
2018-05-11T09:17:31.931Z,24.87
2018-05-11T09:20:00.082Z,26.43
2018-05-11T09:22:27.635Z,26.47
2018-05-11T09:24:55.956Z,25.10
2018-05-11T09:27:24.291Z,25.93
2018-05-11T09:29:51.836Z,27.00
2018-05-11T09:32:20.151Z,25.03
2018-05-11T09:34:48.471Z,26.13
2018-05-11T09:37:16.031Z,25.97
2018-05-11T09:39:44.519Z,25.67
2018-05-11T09:42:11.972Z,24.23
2018-05-11T09:44:39.533Z,24.90
2018-05-11T09:47:07.104Z,24.40
2018-05-11T09:49:34.721Z,25.73
2018-05-11T09:52:02.213Z,25.50
2018-05-11T09:54:29.758Z,26.43
2018-05-11T09:56:58.081Z,25.70
2018-05-11T09:59:26.403Z,25.90
2018-05-11T10:01:54.715Z,24.60
2018-05-11T10:04:22.298Z,23.67
2018-05-11T10:06:50.652Z,23.53
2018-05-11T10:09:19.187Z,23.53
2018-05-11T10:11:46.773Z,25.43
2018-05-11T10:14:14.335Z,24.30
2018-05-11T10:16:41.896Z,24.30
2018-05-11T10:19:09.460Z,23.60
2018-05-11T10:21:37.009Z,21.67
2018-05-11T10:24:04.590Z,22.60
2018-05-11T10:26:32.140Z,22.37
2018-05-11T10:28:59.723Z,23.77
2018-05-11T10:31:27.301Z,21.80
2018-05-11T10:33:54.851Z,22.27
2018-05-11T10:36:23.281Z,22.17
2018-05-11T10:38:51.599Z,21.30
2018-05-11T10:41:19.291Z,21.73
2018-05-11T10:43:46.839Z,21.60
2018-05-11T10:46:15.174Z,22.13
2018-05-11T10:48:42.828Z,21.40
2018-05-11T10:51:11.067Z,23.37
2018-05-11T10:53:38.616Z,22.17
2018-05-11T10:56:06.931Z,21.50
2018-05-11T10:58:34.489Z,21.00
2018-05-11T11:01:02.068Z,20.70
2018-05-11T11:03:29.625Z,21.50
2018-05-11T11:05:57.979Z,21.33
2018-05-11T11:08:25.539Z,21.60
2018-05-11T11:10:53.100Z,21.77
2018-05-11T11:13:21.424Z,21.53
2018-05-11T11:15:48.975Z,21.30
2018-05-11T11:18:16.548Z,21.63
2018-05-11T11:20:44.144Z,20.73
2018-05-11T11:23:11.697Z,19.93
2018-05-11T11:25:39.275Z,20.77
2018-05-11T11:28:06.889Z,20.27
2018-05-11T11:30:34.447Z,20.77
2018-05-11T11:33:01.994Z,21.67
2018-05-11T11:35:30.420Z,21.67
2018-05-11T11:37:58.045Z,20.93
2018-05-11T11:40:25.621Z,21.27
2018-05-11T11:42:53.168Z,21.57
2018-05-11T11:45:21.488Z,21.43
2018-05-11T11:47:49.806Z,20.53
2018-05-11T11:50:17.351Z,21.83
2018-05-11T11:52:44.899Z,21.57
2018-05-11T11:55:12.442Z,20.73
2018-05-11T11:57:40.767Z,19.13
2018-05-11T12:00:08.319Z,21.37
2018-05-11T12:02:36.666Z,21.37
2018-05-11T12:05:04.226Z,21.20
2018-05-11T12:07:32.551Z,20.57
2018-05-11T12:10:00.644Z,19.70
2018-05-11T12:12:28.955Z,20.20
2018-05-11T12:14:57.281Z,20.20
2018-05-11T12:17:24.820Z,20.83
2018-05-11T12:19:52.386Z,19.60
2018-05-11T12:22:19.995Z,20.67
2018-05-11T12:24:47.566Z,19.53
2018-05-11T12:27:15.135Z,19.47
2018-05-11T12:29:42.715Z,20.30
2018-05-11T12:32:10.331Z,19.40
2018-05-11T12:34:37.906Z,19.20
2018-05-11T12:37:05.453Z,20.20
2018-05-11T12:39:33.783Z,19.50
2018-05-11T12:42:01.346Z,20.33
2018-05-11T12:44:29.663Z,18.93
2018-05-11T12:46:57.979Z,19.93
2018-05-11T12:49:25.532Z,19.90
2018-05-11T12:51:53.082Z,19.20
2018-05-11T12:54:20.780Z,19.73
2018-05-11T12:56:48.371Z,18.63
2018-05-11T12:59:15.940Z,18.60
2018-05-11T13:01:43.507Z,17.93
2018-05-11T13:04:11.097Z,18.90
2018-05-11T13:06:38.719Z,17.53
2018-05-11T13:09:06.266Z,19.00
2018-05-11T13:11:33.814Z,18.27
2018-05-11T13:14:01.491Z,19.37
2018-05-11T13:16:29.062Z,17.13
2018-05-11T13:18:56.632Z,17.53
2018-05-11T13:21:24.959Z,17.83
2018-05-11T13:23:52.527Z,16.80
2018-05-11T13:26:20.840Z,16.80
2018-05-11T13:28:48.403Z,17.60
2018-05-11T13:31:15.951Z,16.30
2018-05-11T13:33:43.534Z,16.47
2018-05-11T13:36:11.627Z,17.63
2018-05-11T13:38:39.179Z,17.27
2018-05-11T13:41:06.731Z,15.57
2018-05-11T13:43:34.304Z,16.87
2018-05-11T13:46:01.858Z,15.70
2018-05-11T13:48:29.440Z,15.63
2018-05-11T13:50:57.735Z,17.67
2018-05-11T13:53:26.061Z,15.70
2018-05-11T13:55:53.615Z,14.50
2018-05-11T13:58:21.270Z,14.43
2018-05-11T14:00:48.820Z,15.33
2018-05-11T14:03:16.387Z,15.13
2018-05-11T14:05:44.713Z,15.13
2018-05-11T14:08:12.276Z,14.53
2018-05-11T14:10:39.843Z,16.97
2018-05-11T14:13:07.401Z,15.63
2018-05-11T14:15:34.952Z,15.43
2018-05-11T14:18:02.512Z,16.93
2018-05-11T14:20:30.064Z,15.67
2018-05-11T14:22:57.611Z,16.23
2018-05-11T14:25:25.307Z,15.60
2018-05-11T14:27:52.864Z,16.23
2018-05-11T14:30:20.446Z,15.70
2018-05-11T14:32:48.000Z,15.13
2018-05-11T14:35:16.347Z,15.67
2018-05-11T14:37:43.906Z,16.10
2018-05-11T14:40:11.476Z,16.33
2018-05-11T14:42:39.036Z,15.70
2018-05-11T14:45:06.599Z,14.67
2018-05-11T14:47:34.156Z,15.27
2018-05-11T14:50:01.775Z,14.70
2018-05-11T14:52:29.314Z,13.70
2018-05-11T14:54:56.916Z,14.00
2018-05-11T14:57:25.231Z,14.83
2018-05-11T14:59:52.846Z,15.33
2018-05-11T15:02:20.443Z,15.67
2018-05-11T15:04:48.003Z,15.33
2018-05-11T15:07:15.556Z,15.77
2018-05-11T15:09:43.871Z,13.70
2018-05-11T15:12:11.511Z,14.60
2018-05-11T15:14:39.101Z,14.33
2018-05-11T15:17:06.647Z,15.33
2018-05-11T15:19:34.214Z,16.00
2018-05-11T15:22:02.579Z,15.60
2018-05-11T15:24:30.127Z,13.70
2018-05-11T15:26:58.449Z,13.03
2018-05-11T15:29:26.001Z,13.83
2018-05-11T15:31:54.386Z,13.63
2018-05-11T15:34:21.958Z,11.97
2018-05-11T15:36:49.534Z,14.03
2018-05-11T15:39:17.087Z,14.27
2018-05-11T15:41:45.641Z,13.27
2018-05-11T15:44:13.186Z,14.63
2018-05-11T15:46:41.528Z,14.00
2018-05-11T15:49:09.141Z,13.37
2018-05-11T15:51:36.723Z,12.90
2018-05-11T15:54:04.313Z,13.70
2018-05-11T15:56:31.865Z,14.13
2018-05-11T15:58:59.780Z,14.07
2018-05-11T16:01:28.160Z,14.10
2018-05-11T16:03:55.758Z,14.60
2018-05-11T16:06:23.318Z,13.03
2018-05-11T16:08:50.876Z,12.77
2018-05-11T16:11:18.431Z,12.67
2018-05-11T16:13:45.984Z,12.83
2018-05-11T16:16:14.351Z,13.83
2018-05-11T16:18:41.916Z,12.63
2018-05-11T16:21:09.464Z,12.87
2018-05-11T16:23:37.792Z,11.83
2018-05-11T16:26:05.337Z,12.97
2018-05-11T16:28:33.146Z,12.07
2018-05-11T16:31:00.813Z,11.77
2018-05-11T16:33:28.459Z,11.70
2018-05-11T16:35:56.803Z,12.33
2018-05-11T16:38:24.440Z,12.47
2018-05-11T16:40:52.116Z,11.33
2018-05-11T16:43:20.343Z,13.00
2018-05-11T16:45:48.909Z,13.43
2018-05-11T16:48:16.523Z,11.20
2018-05-11T16:50:44.135Z,11.13
2018-05-11T16:53:12.462Z,11.40
2018-05-11T16:55:40.171Z,11.20
2018-05-11T16:58:07.725Z,10.73
2018-05-11T17:00:35.272Z,10.73
2018-05-11T17:03:02.842Z,9.90
2018-05-11T17:05:30.489Z,11.03
2018-05-11T17:07:58.287Z,10.87
2018-05-11T17:10:25.843Z,11.20
2018-05-11T17:12:53.492Z,11.17
2018-05-11T17:15:21.621Z,12.27
2018-05-11T17:17:49.994Z,12.17
2018-05-11T17:20:17.559Z,12.67
2018-05-11T17:22:45.264Z,12.80
2018-05-11T17:25:12.884Z,12.40
2018-05-11T17:27:40.534Z,11.63
2018-05-11T17:30:08.067Z,11.73
2018-05-11T17:32:35.727Z,12.83
2018-05-11T17:35:03.956Z,13.73
2018-05-11T17:37:31.519Z,12.77
2018-05-11T17:39:59.057Z,12.53
2018-05-11T17:42:26.619Z,11.67
2018-05-11T17:44:54.923Z,12.43
2018-05-11T17:47:22.571Z,11.27
2018-05-11T17:49:50.892Z,14.23
2018-05-11T17:52:18.470Z,13.40
2018-05-11T17:54:46.896Z,12.27
2018-05-11T17:57:15.247Z,13.47
2018-05-11T17:59:42.810Z,11.90
2018-05-11T18:02:10.427Z,10.90
2018-05-11T18:04:38.008Z,11.10
2018-05-11T18:07:05.664Z,10.77
2018-05-11T18:09:33.979Z,11.50
2018-05-11T18:12:01.607Z,11.53
2018-05-11T18:14:29.069Z,11.80
2018-05-11T18:16:56.614Z,13.53
2018-05-11T18:19:24.178Z,13.07
2018-05-11T18:21:51.735Z,12.57
2018-05-11T18:24:19.302Z,11.83
2018-05-11T18:26:47.095Z,12.80
2018-05-11T18:29:14.655Z,12.83
2018-05-11T18:31:42.973Z,12.13
2018-05-11T18:34:11.653Z,12.30
2018-05-11T18:36:39.215Z,14.00
2018-05-11T18:39:06.784Z,11.93
2018-05-11T18:41:34.400Z,13.80
2018-05-11T18:44:02.024Z,12.93
2018-05-11T18:46:29.757Z,12.60
2018-05-11T18:48:58.227Z,12.80
2018-05-11T18:51:25.786Z,13.93
2018-05-11T18:53:53.765Z,12.13
2018-05-11T18:56:20.887Z,12.80
2018-05-11T18:58:48.467Z,12.40
2018-05-11T19:01:16.024Z,12.43
2018-05-11T19:03:43.572Z,16.37
2018-05-11T19:06:11.961Z,13.53
2018-05-11T19:08:40.885Z,12.67
2018-05-11T19:11:08.429Z,12.63
2018-05-11T19:13:36.778Z,13.17
2018-05-11T19:16:04.335Z,12.20
2018-05-11T19:18:31.891Z,13.00
2018-05-11T19:21:00.208Z,11.63
2018-05-11T19:23:28.632Z,12.40
2018-05-11T19:25:56.509Z,11.90
2018-05-11T19:28:24.826Z,13.17
2018-05-11T19:30:52.448Z,15.27
2018-05-11T19:33:20.000Z,13.00
2018-05-11T19:35:47.544Z,12.90
2018-05-11T19:38:15.865Z,13.40
2018-05-11T19:40:43.413Z,12.27
2018-05-11T19:43:11.628Z,13.57
2018-05-11T19:45:39.171Z,13.67
2018-05-11T19:48:06.802Z,12.93
2018-05-11T19:50:34.597Z,13.63
2018-05-11T19:53:02.222Z,12.70
2018-05-11T19:55:30.936Z,12.73
2018-05-11T19:57:58.595Z,12.70
2018-05-11T20:00:26.144Z,13.00
2018-05-11T20:02:53.772Z,13.37
2018-05-11T20:05:21.348Z,14.10
2018-05-11T20:07:48.914Z,13.50
2018-05-11T20:10:16.455Z,13.97
2018-05-11T20:12:44.011Z,13.07
2018-05-11T20:15:11.622Z,12.93
2018-05-11T20:17:39.195Z,14.30
2018-05-11T20:20:06.793Z,14.03
2018-05-11T20:22:34.499Z,14.40
2018-05-11T20:25:02.269Z,14.73
2018-05-11T20:27:29.895Z,13.60
2018-05-11T20:29:58.340Z,13.50
2018-05-11T20:32:25.922Z,12.43
2018-05-11T20:34:54.204Z,14.30
2018-05-11T20:37:22.523Z,12.80
2018-05-11T20:39:50.082Z,14.33
2018-05-11T20:42:18.426Z,14.57
2018-05-11T20:44:46.220Z,13.60
2018-05-11T20:47:13.835Z,13.60
2018-05-11T20:49:42.208Z,14.77
2018-05-11T20:52:09.842Z,15.67
2018-05-11T20:54:37.423Z,14.60
2018-05-11T20:57:04.975Z,14.07
2018-05-11T20:59:33.559Z,15.20
2018-05-11T21:02:01.117Z,16.17
2018-05-11T21:04:28.764Z,16.03
2018-05-11T21:06:57.312Z,15.27
2018-05-11T21:09:24.903Z,15.03
2018-05-11T21:11:52.503Z,16.30
2018-05-11T21:14:20.092Z,15.97
2018-05-11T21:16:47.644Z,16.40
2018-05-11T21:19:15.188Z,14.87
2018-05-11T21:21:42.747Z,16.60
2018-05-11T21:24:10.304Z,16.47
2018-05-11T21:26:37.848Z,14.90
2018-05-11T21:29:05.396Z,15.60
2018-05-11T21:31:32.953Z,13.13
2018-05-11T21:34:01.276Z,14.83
2018-05-11T21:36:28.957Z,14.43
2018-05-11T21:38:57.445Z,16.20
2018-05-11T21:41:25.772Z,16.07
2018-05-11T21:43:54.116Z,14.83
2018-05-11T21:46:21.700Z,15.67
2018-05-11T21:48:49.247Z,14.93
2018-05-11T21:51:17.703Z,15.30
2018-05-11T21:53:47.251Z,14.67
2018-05-11T21:56:14.824Z,20.63
2018-05-11T21:58:42.375Z,16.10
2018-05-11T22:01:10.691Z,14.73
2018-05-11T22:03:39.012Z,15.03
2018-05-11T22:06:06.898Z,13.97
2018-05-11T22:08:35.218Z,13.63
2018-05-11T22:11:02.980Z,13.53
2018-05-11T22:13:31.352Z,14.47
2018-05-11T22:15:58.896Z,14.13
2018-05-11T22:18:26.495Z,14.10
2018-05-11T22:20:54.059Z,15.50
2018-05-11T22:23:22.367Z,14.90
2018-05-11T22:25:49.924Z,16.77
2018-05-11T22:28:17.523Z,16.40
2018-05-11T22:30:45.076Z,15.30
2018-05-11T22:33:12.624Z,14.57
2018-05-11T22:35:40.335Z,14.43
2018-05-11T22:38:07.925Z,15.83
2018-05-11T22:40:35.616Z,16.33
2018-05-11T22:43:03.227Z,15.77
2018-05-11T22:45:30.789Z,13.90
2018-05-11T22:47:58.440Z,16.00
2018-05-11T22:50:26.755Z,14.80
2018-05-11T22:52:54.335Z,12.87
2018-05-11T22:55:21.942Z,13.70
2018-05-11T22:57:49.511Z,13.50
2018-05-11T23:00:17.069Z,12.93
2018-05-11T23:02:45.508Z,15.07
2018-05-11T23:05:13.768Z,17.77
2018-05-11T23:07:41.916Z,17.53
2018-05-11T23:10:11.216Z,18.63
2018-05-11T23:12:39.572Z,18.67
2018-05-11T23:15:07.385Z,16.50
2018-05-11T23:17:35.085Z,18.43
2018-05-11T23:20:02.751Z,18.30
2018-05-11T23:22:30.652Z,19.40
2018-05-11T23:24:58.993Z,17.63
2018-05-11T23:27:26.587Z,16.90
2018-05-11T23:29:54.163Z,16.47
2018-05-11T23:32:21.756Z,16.40
2018-05-11T23:34:49.349Z,16.30
2018-05-11T23:37:16.942Z,16.53
2018-05-11T23:39:44.480Z,16.53
2018-05-11T23:42:12.800Z,17.37
2018-05-11T23:44:40.800Z,17.10
2018-05-11T23:47:09.116Z,16.10
2018-05-11T23:49:36.664Z,16.00
2018-05-11T23:52:04.219Z,16.60
2018-05-11T23:54:32.992Z,16.47
2018-05-11T23:57:01.599Z,16.73
2018-05-11T23:59:30.255Z,16.40
